Time;durP1;ratioP1;P1;durP2;ratioP2;P2;SDS_P1;SDS_P2;PMS_P1;PMS_P2;Temp;Humidity;BMP_temperature;BMP_pressure;BME280_temperature;BME280_humidity;BME280_pressure;Samples;Min_cycle;Max_cycle;Signal;HPM_P1;HPM_P2
2023/12/24 00:02:00;;;;;;;2.27;2.17;;;19.50;45.20;;;;;;4954641;28;20327;-77
2023/12/24 00:04:25;;;;;;;1.50;1.40;;;19.50;45.60;;;;;;4963317;28;20595;-77
2023/12/24 00:06:51;;;;;;;1.70;1.60;;;19.50;45.20;;;;;;4965379;28;20759;-76
2023/12/24 00:09:17;;;;;;;1.77;1.60;;;19.40;45.50;;;;;;4958898;28;20683;-76
2023/12/24 00:11:42;;;;;;;1.37;1.27;;;19.50;45.20;;;;;;4955239;28;20227;-76
2023/12/24 00:14:08;;;;;;;2.13;1.80;;;19.50;45.20;;;;;;4967521;28;20212;-77
2023/12/24 00:16:33;;;;;;;1.60;1.50;;;19.40;45.20;;;;;;4968366;28;20226;-77
2023/12/24 00:18:59;;;;;;;2.10;2.00;;;19.40;45.20;;;;;;4963072;28;20744;-77
2023/12/24 00:21:24;;;;;;;1.70;1.37;;;19.50;45.30;;;;;;4966131;28;20691;-77
2023/12/24 00:23:50;;;;;;;2.70;1.40;;;19.50;45.20;;;;;;4957694;28;20227;-77
2023/12/24 00:26:16;;;;;;;1.70;1.60;;;19.50;45.30;;;;;;4957380;28;20340;-76
2023/12/24 00:28:42;;;;;;;1.83;1.43;;;19.40;45.20;;;;;;4972157;28;20591;-77
2023/12/24 00:31:07;;;;;;;1.40;1.30;;;19.40;45.20;;;;;;4963758;28;20479;-77
2023/12/24 00:33:33;;;;;;;1.30;1.20;;;19.40;45.20;;;;;;4971582;28;20303;-76
2023/12/24 00:35:58;;;;;;;2.90;1.60;;;19.40;45.20;;;;;;4944872;28;20778;-76
2023/12/24 00:38:24;;;;;;;1.53;1.33;;;19.40;45.20;;;;;;4979776;28;20227;-77
2023/12/24 00:40:49;;;;;;;1.60;1.50;;;19.40;45.20;;;;;;4992890;28;20219;-76
2023/12/24 00:43:15;;;;;;;1.73;1.63;;;19.40;45.20;;;;;;4951730;28;20594;-76
2023/12/24 00:45:41;;;;;;;1.83;1.40;;;19.40;45.30;;;;;;4967923;28;20746;-76
2023/12/24 00:48:07;;;;;;;1.90;1.60;;;19.40;45.30;;;;;;4977357;28;20628;-76
2023/12/24 00:50:33;;;;;;;1.67;1.57;;;19.40;45.30;;;;;;4968399;28;20318;-76
2023/12/24 00:52:58;;;;;;;1.57;1.47;;;19.40;45.20;;;;;;4972827;28;20568;-76
2023/12/24 00:55:24;;;;;;;1.67;1.47;;;19.40;45.30;;;;;;4971390;28;21472;-77
2023/12/24 00:57:49;;;;;;;1.87;1.50;;;19.40;45.20;;;;;;4962761;28;21242;-76
2023/12/24 01:00:15;;;;;;;1.50;1.30;;;19.40;45.20;;;;;;4968761;28;20290;-77
2023/12/24 01:02:41;;;;;;;1.30;1.20;;;19.40;45.30;;;;;;4947318;28;20215;-77
2023/12/24 01:05:07;;;;;;;1.47;1.37;;;19.40;45.30;;;;;;4969658;28;20830;-77
2023/12/24 01:07:33;;;;;;;1.70;1.20;;;19.40;45.30;;;;;;4968666;28;20231;-76
2023/12/24 01:09:58;;;;;;;1.43;1.30;;;19.40;45.30;;;;;;4962078;28;21149;-76
2023/12/24 01:12:24;;;;;;;1.50;1.40;;;19.40;45.20;;;;;;4961729;28;20667;-76
2023/12/24 01:14:49;;;;;;;1.77;1.40;;;19.40;45.30;;;;;;4965488;28;20232;-76
2023/12/24 01:17:15;;;;;;;2.20;1.57;;;19.40;45.30;;;;;;4972533;28;20216;-76
2023/12/24 01:19:41;;;;;;;1.30;1.20;;;19.40;45.30;;;;;;4962636;28;20213;-76
2023/12/24 01:22:06;;;;;;;1.70;1.60;;;19.40;45.40;;;;;;4973051;28;20540;-76
2023/12/24 01:24:32;;;;;;;1.30;1.20;;;19.40;45.30;;;;;;4974766;28;20451;-76
2023/12/24 01:26:57;;;;;;;1.53;1.30;;;19.40;45.40;;;;;;4950710;28;20384;-76
2023/12/24 01:29:23;;;;;;;1.40;1.30;;;19.40;45.30;;;;;;4956200;28;20211;-76
2023/12/24 01:31:48;;;;;;;1.30;1.20;;;19.40;45.30;;;;;;4951512;28;20261;-76
2023/12/24 01:34:14;;;;;;;1.60;1.50;;;19.40;45.30;;;;;;4950169;28;20264;-76
2023/12/24 01:36:40;;;;;;;1.20;1.00;;;19.40;45.30;;;;;;4952525;28;20275;-76
2023/12/24 01:39:10;;;;;;;1.30;1.20;;;19.40;45.30;;;;;;4946599;28;21031;-76
2023/12/24 01:41:35;;;;;;;1.50;1.20;;;19.40;45.30;;;;;;4981066;28;20217;-76
2023/12/24 01:44:01;;;;;;;1.10;1.00;;;19.40;45.40;;;;;;4945778;28;22209;-76
2023/12/24 01:46:28;;;;;;;1.47;1.37;;;19.40;45.30;;;;;;4956195;28;20228;-76
2023/12/24 01:48:55;;;;;;;1.40;1.30;;;19.40;45.40;;;;;;4980614;28;20319;-76
2023/12/24 01:51:23;;;;;;;1.50;1.40;;;19.40;45.40;;;;;;4950474;28;20463;-76
2023/12/24 01:53:50;;;;;;;1.40;1.27;;;19.40;45.30;;;;;;4945850;28;20452;-76
2023/12/24 01:56:19;;;;;;;1.27;1.17;;;19.40;45.30;;;;;;4986010;28;20990;-76
2023/12/24 01:58:45;;;;;;;1.33;1.20;;;19.40;45.30;;;;;;4948679;28;20824;-76
2023/12/24 02:01:11;;;;;;;1.20;1.10;;;19.40;45.30;;;;;;4949123;28;20466;-76
2023/12/24 02:03:36;;;;;;;1.30;1.07;;;19.40;46.10;;;;;;4945080;28;21201;-77
2023/12/24 02:06:05;;;;;;;1.20;1.10;;;19.40;45.40;;;;;;4945159;28;20578;-76
2023/12/24 02:08:30;;;;;;;1.53;1.20;;;19.40;45.30;;;;;;4940604;28;20244;-76
2023/12/24 02:10:58;;;;;;;1.87;1.30;;;19.40;45.40;;;;;;4953661;28;20827;-77
2023/12/24 02:13:23;;;;;;;1.30;1.20;;;19.40;45.30;;;;;;4958040;28;20649;-77
2023/12/24 02:15:55;;;;;;;1.13;1.03;;;19.40;45.40;;;;;;4987118;28;20429;-77
2023/12/24 02:18:21;;;;;;;1.00;0.90;;;19.40;45.30;;;;;;4947083;28;20687;-77
2023/12/24 02:20:47;;;;;;;1.27;1.17;;;19.40;45.40;;;;;;4948404;28;20525;-76
2023/12/24 02:23:12;;;;;;;1.30;1.20;;;19.40;45.40;;;;;;4951644;28;20311;-76
2023/12/24 02:25:38;;;;;;;1.50;1.40;;;19.40;45.30;;;;;;4956324;28;21321;-76
2023/12/24 02:28:25;;;;;;;1.30;1.20;;;19.40;45.30;;;;;;4972541;28;20279;-77
2023/12/24 02:30:56;;;;;;;1.33;1.20;;;19.40;45.30;;;;;;4978056;28;20319;-76
2023/12/24 02:33:24;;;;;;;1.20;1.10;;;19.40;45.40;;;;;;4978258;28;20479;-77
2023/12/24 02:35:51;;;;;;;1.10;1.00;;;19.40;45.30;;;;;;4972362;28;20474;-76
2023/12/24 02:38:16;;;;;;;1.33;1.20;;;19.40;45.30;;;;;;4964973;28;20814;-77
2023/12/24 02:40:42;;;;;;;1.30;1.20;;;19.40;45.30;;;;;;4967831;28;20498;-76
2023/12/24 02:43:08;;;;;;;1.20;1.10;;;19.40;45.30;;;;;;4957990;28;20220;-77
2023/12/24 02:45:35;;;;;;;1.27;1.17;;;19.40;45.30;;;;;;4969553;28;20659;-76
2023/12/24 02:48:00;;;;;;;1.83;1.20;;;19.40;45.30;;;;;;4978729;28;20439;-73
2023/12/24 02:50:26;;;;;;;1.00;0.90;;;19.40;45.30;;;;;;4965901;28;20511;-73
2023/12/24 02:52:52;;;;;;;1.17;1.07;;;19.40;45.40;;;;;;4980389;28;20223;-77
2023/12/24 02:55:17;;;;;;;1.10;1.00;;;19.40;45.30;;;;;;4978574;28;20237;-73
2023/12/24 02:57:43;;;;;;;1.43;1.20;;;19.40;45.30;;;;;;4974050;28;20739;-74
2023/12/24 03:00:09;;;;;;;1.10;1.00;;;19.40;45.30;;;;;;4960802;28;20886;-77
2023/12/24 03:02:35;;;;;;;1.53;1.30;;;19.40;45.30;;;;;;4976043;28;20243;-72
2023/12/24 03:05:01;;;;;;;1.00;0.90;;;19.40;45.30;;;;;;4973412;28;20482;-77
2023/12/24 03:07:28;;;;;;;1.10;1.00;;;19.40;45.30;;;;;;4966543;28;20444;-76
2023/12/24 03:09:54;;;;;;;1.17;0.93;;;19.40;45.30;;;;;;4947719;28;20485;-76
2023/12/24 03:12:19;;;;;;;1.13;1.03;;;19.40;45.30;;;;;;4976632;28;20591;-77
2023/12/24 03:14:45;;;;;;;1.20;1.10;;;19.40;45.30;;;;;;4979159;28;20270;-77
2023/12/24 03:17:10;;;;;;;1.53;1.33;;;19.40;45.40;;;;;;4956571;28;20711;-76
2023/12/24 03:19:36;;;;;;;1.10;1.00;;;19.40;45.30;;;;;;4974786;28;20216;-72
2023/12/24 03:22:02;;;;;;;1.10;1.00;;;19.40;45.30;;;;;;4975492;28;20919;-74
2023/12/24 03:24:28;;;;;;;1.47;0.93;;;19.40;45.30;;;;;;4977189;28;21036;-77
2023/12/24 03:26:54;;;;;;;0.97;0.90;;;19.40;45.30;;;;;;4969213;28;20464;-77
2023/12/24 03:29:19;;;;;;;0.97;0.90;;;19.40;45.30;;;;;;4975903;28;20318;-77
2023/12/24 03:31:45;;;;;;;1.37;0.90;;;19.40;45.30;;;;;;4969560;28;20216;-77
2023/12/24 03:34:11;;;;;;;1.10;1.00;;;19.40;45.30;;;;;;4973663;28;20228;-77
2023/12/24 03:36:36;;;;;;;1.10;1.00;;;19.40;45.30;;;;;;4977881;28;20258;-76
2023/12/24 03:39:02;;;;;;;1.47;1.10;;;19.40;45.30;;;;;;4959592;28;20224;-76
2023/12/24 03:41:27;;;;;;;1.00;0.90;;;19.40;45.30;;;;;;4957995;28;20213;-76
2023/12/24 03:43:53;;;;;;;1.30;1.00;;;19.40;45.30;;;;;;4973072;28;20237;-76
2023/12/24 03:46:19;;;;;;;1.03;0.93;;;19.40;45.40;;;;;;4976490;28;20235;-76
2023/12/24 03:48:45;;;;;;;1.20;1.10;;;19.40;45.30;;;;;;4954116;28;20227;-76
2023/12/24 03:51:11;;;;;;;1.00;0.90;;;19.40;45.30;;;;;;4972560;28;20612;-76
2023/12/24 03:53:37;;;;;;;1.13;1.00;;;19.40;45.30;;;;;;4975688;28;20243;-76
2023/12/24 03:56:03;;;;;;;1.10;1.00;;;19.40;45.30;;;;;;4957422;28;21351;-76
2023/12/24 03:58:29;;;;;;;1.00;0.90;;;19.40;45.30;;;;;;4971130;28;20476;-76
2023/12/24 04:00:55;;;;;;;1.00;0.90;;;19.40;45.30;;;;;;4960715;28;20963;-76
2023/12/24 04:03:20;;;;;;;1.10;1.00;;;19.40;45.30;;;;;;4972834;28;20241;-76
2023/12/24 04:05:46;;;;;;;1.00;0.90;;;19.40;45.30;;;;;;4971377;28;21261;-76
2023/12/24 04:08:11;;;;;;;0.93;0.80;;;19.40;45.30;;;;;;4972828;28;20559;-76
2023/12/24 04:10:39;;;;;;;1.07;0.97;;;19.40;45.30;;;;;;4963617;28;20236;-76
2023/12/24 04:13:06;;;;;;;1.10;1.00;;;19.40;45.30;;;;;;4977857;28;20666;-76
2023/12/24 04:15:31;;;;;;;1.10;1.00;;;19.40;45.30;;;;;;4951634;28;20452;-76
2023/12/24 04:17:57;;;;;;;1.00;0.90;;;19.40;45.30;;;;;;4968134;28;20446;-76
2023/12/24 04:20:22;;;;;;;1.03;0.93;;;19.40;45.30;;;;;;4971008;28;20751;-76
2023/12/24 04:22:48;;;;;;;1.20;1.10;;;19.40;45.30;;;;;;4947846;28;20357;-76
2023/12/24 04:25:13;;;;;;;1.10;1.00;;;19.40;45.30;;;;;;4980667;28;20695;-76
2023/12/24 04:27:39;;;;;;;0.90;0.90;;;19.40;45.30;;;;;;4978053;28;20227;-76
2023/12/24 04:30:05;;;;;;;1.00;0.90;;;19.40;45.30;;;;;;4972863;28;20247;-76
2023/12/24 04:32:31;;;;;;;1.30;1.03;;;19.40;45.30;;;;;;4965224;28;20315;-76
2023/12/24 04:34:56;;;;;;;0.93;0.83;;;19.40;45.30;;;;;;4980077;28;20552;-75
2023/12/24 04:37:22;;;;;;;1.13;1.10;;;19.40;45.30;;;;;;4968824;28;20263;-76
2023/12/24 04:39:48;;;;;;;1.00;0.90;;;19.40;45.30;;;;;;4976496;28;20219;-74
2023/12/24 04:42:13;;;;;;;1.30;1.03;;;19.40;45.30;;;;;;4961138;28;20297;-73
2023/12/24 04:44:39;;;;;;;1.20;0.90;;;19.40;45.20;;;;;;4975898;28;20691;-72
2023/12/24 04:47:06;;;;;;;1.23;1.13;;;19.40;45.30;;;;;;4980407;28;20255;-73
2023/12/24 04:49:32;;;;;;;1.20;1.00;;;19.40;45.20;;;;;;4971810;28;20366;-76
2023/12/24 04:51:59;;;;;;;1.00;0.90;;;19.40;45.30;;;;;;4975125;28;20434;-76
2023/12/24 04:54:28;;;;;;;1.73;1.00;;;19.40;45.20;;;;;;4958057;28;20220;-76
2023/12/24 04:56:53;;;;;;;1.57;0.90;;;19.40;45.20;;;;;;4978157;28;20759;-76
2023/12/24 04:59:19;;;;;;;1.00;0.90;;;19.40;45.20;;;;;;4976584;28;20969;-76
2023/12/24 05:01:44;;;;;;;1.03;0.93;;;19.40;45.10;;;;;;4976434;28;20520;-76
2023/12/24 05:04:10;;;;;;;0.80;0.73;;;19.40;45.10;;;;;;4955252;28;20670;-76
2023/12/24 05:06:35;;;;;;;1.30;0.83;;;19.50;45.20;;;;;;4971995;28;20752;-76
2023/12/24 05:09:01;;;;;;;0.90;0.90;;;19.50;45.10;;;;;;4965983;28;20267;-76
2023/12/24 05:11:27;;;;;;;0.90;0.90;;;19.50;45.10;;;;;;4978534;28;21016;-76
2023/12/24 05:13:52;;;;;;;0.80;0.70;;;19.50;45.10;;;;;;4973911;28;20232;-75
2023/12/24 05:16:18;;;;;;;0.90;0.77;;;19.50;45.10;;;;;;4973972;28;20305;-75
2023/12/24 05:18:44;;;;;;;0.87;0.80;;;19.50;45.00;;;;;;4970566;28;20228;-75
2023/12/24 05:21:09;;;;;;;1.03;0.93;;;19.50;45.00;;;;;;4961820;28;20706;-75
2023/12/24 05:23:35;;;;;;;0.83;0.83;;;19.50;45.00;;;;;;4976014;28;20670;-76
2023/12/24 05:26:00;;;;;;;0.90;0.80;;;19.50;44.90;;;;;;4963272;28;20239;-76
2023/12/24 05:28:26;;;;;;;0.90;0.70;;;19.50;45.00;;;;;;4961375;28;20221;-75
2023/12/24 05:30:51;;;;;;;0.80;0.70;;;19.50;44.90;;;;;;4955245;28;20222;-75
2023/12/24 05:33:17;;;;;;;0.80;0.70;;;19.50;44.90;;;;;;4955394;28;20259;-77
2023/12/24 05:35:43;;;;;;;0.70;0.70;;;19.50;45.00;;;;;;4962057;28;20234;-76
2023/12/24 05:38:08;;;;;;;0.80;0.80;;;19.50;44.90;;;;;;4981642;28;20259;-76
2023/12/24 05:40:34;;;;;;;1.00;0.90;;;19.50;44.90;;;;;;4961975;28;20313;-76
2023/12/24 05:42:59;;;;;;;0.80;0.73;;;19.50;44.90;;;;;;4974605;28;20247;-76
2023/12/24 05:45:25;;;;;;;0.80;0.80;;;19.50;44.90;;;;;;4975086;28;20247;-76
2023/12/24 05:47:50;;;;;;;1.00;0.90;;;19.50;44.90;;;;;;4969710;28;20239;-76
2023/12/24 05:50:16;;;;;;;0.80;0.80;;;19.50;44.90;;;;;;4966396;28;20307;-77
2023/12/24 05:52:41;;;;;;;0.80;0.77;;;19.50;44.90;;;;;;4974153;28;20217;-77
2023/12/24 05:55:08;;;;;;;0.70;0.70;;;19.50;44.90;;;;;;4975757;28;20725;-77
2023/12/24 05:57:34;;;;;;;0.80;0.73;;;19.50;44.90;;;;;;4974295;28;20223;-77
2023/12/24 06:00:00;;;;;;;0.77;0.77;;;19.50;44.90;;;;;;4957523;28;20477;-75
2023/12/24 06:02:26;;;;;;;0.83;0.80;;;19.50;44.90;;;;;;4966286;28;20510;-77
2023/12/24 06:04:51;;;;;;;0.70;0.70;;;19.50;44.80;;;;;;4979083;28;20325;-76
2023/12/24 06:07:17;;;;;;;0.90;0.80;;;19.60;44.90;;;;;;4971854;28;20580;-76
2023/12/24 06:09:43;;;;;;;0.80;0.80;;;19.60;44.50;;;;;;4964921;28;22076;-75
2023/12/24 06:12:08;;;;;;;1.00;0.90;;;19.50;44.80;;;;;;4979981;28;20231;-76
2023/12/24 06:14:34;;;;;;;0.80;0.60;;;19.60;44.90;;;;;;4978130;28;20227;-76
2023/12/24 06:17:00;;;;;;;1.00;0.60;;;19.60;44.90;;;;;;4977049;28;20227;-76
2023/12/24 06:19:26;;;;;;;0.70;0.70;;;19.60;44.80;;;;;;4977722;28;22143;-76
2023/12/24 06:21:51;;;;;;;0.90;0.80;;;19.60;44.80;;;;;;4979771;28;20309;-79
2023/12/24 06:24:21;;;;;;;0.77;0.73;;;19.60;44.80;;;;;;4984673;28;20243;-77
2023/12/24 06:26:51;;;;;;;1.00;0.90;;;19.60;44.80;;;;;;4992383;28;20699;-78
2023/12/24 06:29:16;;;;;;;0.70;0.60;;;19.60;44.80;;;;;;4987288;28;20452;-73
2023/12/24 06:31:42;;;;;;;0.80;0.80;;;19.60;44.70;;;;;;4988764;28;20457;-73
2023/12/24 06:34:08;;;;;;;0.90;0.70;;;19.60;44.70;;;;;;4986968;28;20227;-76
2023/12/24 06:36:33;;;;;;;0.70;0.60;;;19.60;44.70;;;;;;4984411;28;20238;-76
2023/12/24 06:38:59;;;;;;;0.80;0.73;;;19.60;44.70;;;;;;4984157;28;20213;-75
2023/12/24 06:41:24;;;;;;;1.73;0.70;;;19.60;44.60;;;;;;5006776;28;20232;-76
2023/12/24 06:43:50;;;;;;;0.70;0.60;;;19.60;44.50;;;;;;4988661;28;20238;-75
2023/12/24 06:46:16;;;;;;;2.70;0.63;;;19.60;44.50;;;;;;4980548;28;20232;-75
2023/12/24 06:48:41;;;;;;;0.70;0.60;;;19.70;44.60;;;;;;4990726;28;20223;-74
2023/12/24 06:51:07;;;;;;;0.90;0.80;;;19.70;44.60;;;;;;4997372;28;20227;-72
2023/12/24 06:53:33;;;;;;;0.70;0.63;;;19.60;44.50;;;;;;4993846;28;20223;-74
2023/12/24 06:55:59;;;;;;;1.10;0.80;;;19.70;44.50;;;;;;4970077;28;20465;-72
2023/12/24 06:58:24;;;;;;;0.90;0.80;;;19.70;44.40;;;;;;4985039;28;20639;-76
2023/12/24 07:00:50;;;;;;;0.80;0.60;;;19.70;44.40;;;;;;4975066;28;20656;-74
2023/12/24 07:03:15;;;;;;;0.70;0.60;;;19.70;44.50;;;;;;4977879;28;20393;-75
2023/12/24 07:05:42;;;;;;;0.70;0.70;;;19.70;44.40;;;;;;4983002;28;20319;-74
2023/12/24 07:08:08;;;;;;;0.80;0.70;;;19.70;44.40;;;;;;4986177;28;20231;-74
2023/12/24 07:10:34;;;;;;;0.67;0.67;;;19.70;44.40;;;;;;4982821;28;20460;-74
2023/12/24 07:13:00;;;;;;;0.70;0.60;;;19.70;44.40;;;;;;4984797;28;20471;-74
2023/12/24 07:15:25;;;;;;;0.70;0.60;;;19.70;44.40;;;;;;4995052;28;20489;-75
2023/12/24 07:17:51;;;;;;;0.80;0.77;;;19.70;44.40;;;;;;4986981;28;20319;-74
2023/12/24 07:20:16;;;;;;;0.80;0.60;;;19.70;44.40;;;;;;4984657;28;20229;-74
2023/12/24 07:22:42;;;;;;;1.73;0.80;;;19.70;44.40;;;;;;4973439;28;20223;-75
2023/12/24 07:25:09;;;;;;;0.90;0.90;;;19.70;44.40;;;;;;4995380;28;20236;-74
2023/12/24 07:27:34;;;;;;;1.80;0.80;;;19.70;44.40;;;;;;4996145;28;20674;-74
2023/12/24 07:30:00;;;;;;;1.30;0.87;;;19.70;44.40;;;;;;4994466;28;20443;-75
2023/12/24 07:32:26;;;;;;;1.63;1.23;;;19.70;44.40;;;;;;4968160;28;20212;-75
2023/12/24 07:34:51;;;;;;;0.80;0.80;;;19.70;44.40;;;;;;4979564;28;20216;-74
2023/12/24 07:37:17;;;;;;;0.90;0.80;;;19.70;44.40;;;;;;4989778;28;20215;-75
2023/12/24 07:39:43;;;;;;;0.90;0.80;;;19.70;44.40;;;;;;4965743;28;20227;-74
2023/12/24 07:42:08;;;;;;;0.90;0.80;;;19.70;44.40;;;;;;4965544;28;20219;-75
2023/12/24 07:44:34;;;;;;;1.00;0.90;;;19.70;44.50;;;;;;4989044;28;20277;-75
2023/12/24 07:46:59;;;;;;;1.60;0.83;;;19.70;44.50;;;;;;4983041;28;20245;-75
2023/12/24 07:49:26;;;;;;;0.93;0.87;;;19.70;44.50;;;;;;4969216;28;20363;-75
2023/12/24 07:51:52;;;;;;;2.10;1.00;;;19.70;44.50;;;;;;4982975;28;20588;-75
2023/12/24 07:54:18;;;;;;;1.00;0.80;;;19.70;44.50;;;;;;4974203;28;20457;-75
2023/12/24 07:56:43;;;;;;;0.80;0.70;;;19.70;44.60;;;;;;4990625;28;20892;-74
2023/12/24 07:59:09;;;;;;;0.80;0.80;;;19.70;44.70;;;;;;4979724;28;20958;-73
2023/12/24 08:01:37;;;;;;;1.03;0.90;;;19.70;44.60;;;;;;4970737;28;20236;-71
2023/12/24 08:04:03;;;;;;;1.50;1.00;;;19.70;44.60;;;;;;4989313;28;20672;-73
2023/12/24 08:06:29;;;;;;;1.47;1.00;;;19.70;44.70;;;;;;4985121;28;20492;-72
2023/12/24 08:08:56;;;;;;;1.37;0.70;;;19.70;44.80;;;;;;4993664;28;20951;-71
2023/12/24 08:11:21;;;;;;;0.80;0.80;;;19.70;44.80;;;;;;4989804;28;20421;-71
2023/12/24 08:13:47;;;;;;;0.70;0.70;;;19.70;45.50;;;;;;4975768;28;20966;-73
2023/12/24 08:16:12;;;;;;;1.10;0.83;;;19.70;44.70;;;;;;4980061;28;20216;-72
2023/12/24 08:18:38;;;;;;;2.50;0.80;;;19.70;44.80;;;;;;4971860;28;20236;-73
2023/12/24 08:21:06;;;;;;;3.20;2.33;;;19.70;44.70;;;;;;4986140;28;20281;-72
2023/12/24 08:23:32;;;;;;;0.93;0.73;;;19.70;44.80;;;;;;4975634;28;20228;-73
2023/12/24 08:25:58;;;;;;;1.60;1.10;;;19.70;44.80;;;;;;4992429;28;20490;-73
2023/12/24 08:28:23;;;;;;;1.10;0.87;;;19.70;44.90;;;;;;4979680;28;20259;-72
2023/12/24 08:30:49;;;;;;;1.30;0.90;;;19.70;44.90;;;;;;4974594;28;20223;-74
2023/12/24 08:33:14;;;;;;;0.87;0.70;;;19.60;44.80;;;;;;4978677;28;20254;-73
2023/12/24 08:35:40;;;;;;;1.20;0.97;;;19.60;44.80;;;;;;4985972;28;20270;-72
2023/12/24 08:38:05;;;;;;;1.10;0.93;;;19.70;45.00;;;;;;4975403;28;20315;-75
2023/12/24 08:40:31;;;;;;;1.00;0.90;;;19.60;44.90;;;;;;4971384;28;20243;-76
2023/12/24 08:42:56;;;;;;;0.80;0.77;;;19.70;45.00;;;;;;4993296;28;20710;-77
2023/12/24 08:45:22;;;;;;;1.07;0.97;;;19.60;44.90;;;;;;4975840;28;20822;-74
2023/12/24 08:47:48;;;;;;;0.90;0.80;;;19.60;44.90;;;;;;4984620;28;20223;-75
2023/12/24 08:50:14;;;;;;;0.70;0.70;;;19.70;45.00;;;;;;4969197;28;20437;-74
2023/12/24 08:52:42;;;;;;;1.10;1.00;;;19.60;44.80;;;;;;4988654;28;20261;-74
2023/12/24 08:55:08;;;;;;;0.73;0.70;;;19.60;44.90;;;;;;4981901;28;20238;-74
2023/12/24 08:57:34;;;;;;;0.90;0.90;;;19.60;44.90;;;;;;4971081;28;20496;-74
2023/12/24 08:59:59;;;;;;;0.80;0.73;;;19.60;45.00;;;;;;4980006;28;20220;-73
2023/12/24 09:02:25;;;;;;;1.20;1.10;;;19.60;44.90;;;;;;4978210;28;20435;-74
2023/12/24 09:04:51;;;;;;;0.80;0.80;;;19.60;44.90;;;;;;4981241;28;20228;-75
2023/12/24 09:07:16;;;;;;;0.97;0.80;;;19.60;44.90;;;;;;4963949;28;20278;-74
2023/12/24 09:09:42;;;;;;;0.83;0.80;;;19.60;45.00;;;;;;4978961;28;20216;-74
2023/12/24 09:12:08;;;;;;;2.20;0.90;;;19.60;44.90;;;;;;4973891;28;20216;-71
2023/12/24 09:14:33;;;;;;;1.57;1.00;;;19.60;45.00;;;;;;4983949;28;20886;-71
2023/12/24 09:16:59;;;;;;;1.30;1.20;;;19.60;45.70;;;;;;4981870;28;20303;-71
2023/12/24 09:19:25;;;;;;;1.40;1.30;;;19.60;45.00;;;;;;4974990;28;20401;-73
2023/12/24 09:21:50;;;;;;;2.40;1.50;;;19.60;45.00;;;;;;4978796;28;20224;-75
2023/12/24 09:24:16;;;;;;;1.57;1.47;;;19.60;45.00;;;;;;4964499;28;20230;-75
2023/12/24 09:34:05;;;;;;;1.83;1.67;;;19.60;44.90;;;;;;4969421;28;20467;-76
2023/12/24 09:36:30;;;;;;;2.33;1.80;;;19.50;44.90;;;;;;4961983;28;21100;-76
2023/12/24 09:38:56;;;;;;;2.50;2.30;;;19.60;45.10;;;;;;4970930;28;20217;-76
2023/12/24 09:41:21;;;;;;;2.27;1.60;;;19.60;45.10;;;;;;4947377;28;20269;-75
2023/12/24 09:43:47;;;;;;;1.90;1.80;;;19.50;45.00;;;;;;4985082;28;20258;-76
2023/12/24 09:46:13;;;;;;;3.77;1.80;;;19.60;45.10;;;;;;4985956;28;20380;-76
2023/12/24 09:48:38;;;;;;;2.40;2.20;;;19.60;45.10;;;;;;4991822;28;20195;-76
2023/12/24 09:51:06;;;;;;;3.50;2.20;;;19.60;45.10;;;;;;4983904;28;21240;-75
2023/12/24 09:53:32;;;;;;;4.77;2.20;;;19.60;45.10;;;;;;4959094;28;20251;-76
2023/12/24 09:55:58;;;;;;;5.13;2.73;;;19.60;45.10;;;;;;4993814;28;20511;-76
2023/12/24 09:58:23;;;;;;;3.53;2.60;;;19.60;45.10;;;;;;4988549;28;20223;-73
2023/12/24 10:00:49;;;;;;;2.60;2.40;;;19.60;45.10;;;;;;4980291;28;20476;-73
2023/12/24 10:03:15;;;;;;;2.63;2.40;;;19.60;45.10;;;;;;4983557;28;21031;-73
2023/12/24 10:06:08;;;;;;;11.40;3.27;;;19.60;45.10;;;;;;4992299;28;20267;-73
2023/12/24 10:08:35;;;;;;;8.40;3.23;;;19.60;45.10;;;;;;5007649;28;20321;-77
2023/12/24 10:11:15;;;;;;;3.20;2.67;;;19.60;45.10;;;;;;4982335;28;20825;-77
2023/12/24 10:13:44;;;;;;;4.13;2.97;;;19.60;45.10;;;;;;4985963;28;20935;-76
2023/12/24 10:16:10;;;;;;;3.50;2.67;;;19.50;45.10;;;;;;4978391;28;20504;-76
2023/12/24 10:18:36;;;;;;;4.90;2.73;;;19.60;45.20;;;;;;4970893;28;20457;-75
2023/12/24 10:21:10;;;;;;;4.00;3.00;;;19.60;45.30;;;;;;4983818;28;20227;-77
2023/12/24 10:23:36;;;;;;;4.10;3.10;;;19.60;45.20;;;;;;4979650;28;20603;-75
2023/12/24 10:26:03;;;;;;;3.50;2.47;;;19.60;45.20;;;;;;4975115;28;20464;-77
2023/12/24 10:28:30;;;;;;;3.30;3.00;;;19.60;45.20;;;;;;4973495;28;20413;-77
2023/12/24 10:31:07;;;;;;;5.83;2.53;;;19.60;45.20;;;;;;4972383;28;20440;-78
2023/12/24 10:33:37;;;;;;;8.30;3.87;;;19.60;45.20;;;;;;4963767;28;20608;-78
2023/12/24 10:36:03;;;;;;;3.60;3.30;;;19.60;45.30;;;;;;4979118;28;20432;-76
2023/12/24 10:38:29;;;;;;;3.33;2.07;;;19.60;45.30;;;;;;4977792;28;21082;-75
2023/12/24 10:40:54;;;;;;;2.40;2.20;;;19.60;45.20;;;;;;4988597;28;20547;-75
2023/12/24 10:43:20;;;;;;;2.50;2.30;;;19.60;45.20;;;;;;4972347;28;20307;-75
2023/12/24 10:45:45;;;;;;;3.57;2.33;;;19.60;45.20;;;;;;4989435;28;21754;-75
2023/12/24 10:48:11;;;;;;;2.20;2.00;;;19.60;45.20;;;;;;4979524;28;20231;-76
2023/12/24 10:50:38;;;;;;;1.87;1.77;;;19.60;45.30;;;;;;4980327;28;20251;-75
2023/12/24 10:53:03;;;;;;;5.23;2.40;;;19.60;46.10;;;;;;4982089;28;20421;-75
2023/12/24 10:55:31;;;;;;;2.60;2.30;;;19.60;45.30;;;;;;4977852;28;20727;-76
2023/12/24 10:58:00;;;;;;;5.43;2.10;;;19.60;45.30;;;;;;4979788;28;22397;-76
2023/12/24 11:00:26;;;;;;;4.50;2.10;;;19.60;45.30;;;;;;4997212;28;20448;-75
2023/12/24 11:02:52;;;;;;;2.97;2.67;;;19.60;45.30;;;;;;4981929;28;20461;-75
2023/12/24 11:05:36;;;;;;;1.90;1.80;;;19.60;45.30;;;;;;4971561;28;20917;-75
2023/12/24 11:08:02;;;;;;;2.50;1.93;;;19.60;45.50;;;;;;4995266;28;20569;-75
2023/12/24 11:10:43;;;;;;;2.10;1.90;;;19.60;45.30;;;;;;4994225;28;20449;-75
2023/12/24 11:13:10;;;;;;;1.97;1.77;;;19.60;45.30;;;;;;4973479;28;20220;-75
2023/12/24 11:15:44;;;;;;;1.87;1.77;;;19.60;45.50;;;;;;4986717;28;20451;-76
2023/12/24 11:18:10;;;;;;;2.30;2.10;;;19.60;45.40;;;;;;4988697;28;21012;-74
2023/12/24 11:20:41;;;;;;;3.20;2.00;;;19.50;45.30;;;;;;4975937;28;20445;-74
2023/12/24 11:23:06;;;;;;;2.00;1.70;;;19.60;45.50;;;;;;4991698;28;20215;-73
2023/12/24 11:25:36;;;;;;;2.10;1.90;;;19.50;45.30;;;;;;4959090;28;20537;-74
2023/12/24 11:28:03;;;;;;;1.83;1.73;;;19.50;45.30;;;;;;4973597;28;20710;-72
2023/12/24 11:30:28;;;;;;;8.33;2.70;;;19.60;45.40;;;;;;4965991;28;20875;-73
2023/12/24 11:32:54;;;;;;;2.00;1.73;;;19.60;45.50;;;;;;4993092;28;20423;-74
2023/12/24 11:35:51;;;;;;;1.73;1.63;;;19.60;45.40;;;;;;4970167;28;20235;-74
2023/12/24 11:38:35;;;;;;;2.40;1.90;;;19.60;45.40;;;;;;4975984;28;20691;-74
2023/12/24 11:41:10;;;;;;;2.40;2.10;;;19.60;45.30;;;;;;4982415;28;20433;-73
2023/12/24 11:43:37;;;;;;;2.37;2.10;;;19.60;45.30;;;;;;4972577;28;20836;-74
2023/12/24 11:46:04;;;;;;;2.87;1.97;;;19.70;45.30;;;;;;4983649;28;21026;-73
2023/12/24 11:48:32;;;;;;;3.93;1.93;;;19.70;45.30;;;;;;4958996;28;20531;-72
2023/12/24 11:51:06;;;;;;;1.60;1.50;;;19.70;45.20;;;;;;4972015;28;20439;-73
2023/12/24 11:53:34;;;;;;;3.37;1.70;;;19.70;45.20;;;;;;4978719;28;20863;-73
2023/12/24 11:56:20;;;;;;;3.40;1.90;;;19.70;45.20;;;;;;4995458;28;20833;-74
2023/12/24 11:58:48;;;;;;;2.27;1.87;;;19.70;45.20;;;;;;4964798;28;20510;-74
2023/12/24 12:01:19;;;;;;;2.73;1.60;;;19.70;45.10;;;;;;4980843;28;20443;-73
2023/12/24 12:03:44;;;;;;;1.93;1.83;;;19.70;45.10;;;;;;4987372;28;20433;-73
2023/12/24 12:06:10;;;;;;;1.63;1.53;;;19.70;45.10;;;;;;4992448;28;20457;-75
2023/12/24 12:08:35;;;;;;;1.67;1.57;;;19.70;45.10;;;;;;4993474;28;20225;-75
2023/12/24 12:11:01;;;;;;;2.37;1.40;;;19.70;45.10;;;;;;4982266;28;21830;-74
2023/12/24 12:13:27;;;;;;;3.00;2.00;;;19.70;45.20;;;;;;4985559;28;20223;-74
2023/12/24 12:15:53;;;;;;;3.63;1.50;;;19.70;45.20;;;;;;4989076;28;20441;-74
2023/12/24 12:18:19;;;;;;;2.40;1.97;;;19.70;45.20;;;;;;4995863;28;20295;-74
2023/12/24 12:20:45;;;;;;;1.90;1.80;;;19.70;45.20;;;;;;4983747;28;20219;-74
2023/12/24 12:23:16;;;;;;;1.50;1.40;;;19.70;45.20;;;;;;4986470;28;20760;-76
2023/12/24 12:25:43;;;;;;;1.50;1.40;;;19.70;45.20;;;;;;4959232;28;20892;-77
2023/12/24 12:28:09;;;;;;;1.80;1.37;;;19.70;45.30;;;;;;4984473;28;20443;-77
2023/12/24 12:30:34;;;;;;;1.60;1.50;;;19.70;46.10;;;;;;4995521;28;21116;-76
2023/12/24 12:33:01;;;;;;;4.10;1.60;;;19.70;45.20;;;;;;4986098;28;20215;-76
2023/12/24 12:35:26;;;;;;;2.23;1.30;;;19.70;45.20;;;;;;4981010;28;20219;-75
2023/12/24 12:37:52;;;;;;;2.60;2.40;;;19.70;45.30;;;;;;4982483;28;20799;-72
2023/12/24 12:40:18;;;;;;;1.33;1.23;;;19.70;45.30;;;;;;4971621;28;20595;-73
2023/12/24 12:42:44;;;;;;;2.90;1.77;;;19.70;45.30;;;;;;4990001;28;20236;-74
2023/12/24 12:45:09;;;;;;;1.80;1.70;;;19.70;45.30;;;;;;4987509;28;20228;-74
2023/12/24 12:47:35;;;;;;;3.80;1.77;;;19.70;45.30;;;;;;4991339;28;20448;-73
2023/12/24 12:50:02;;;;;;;7.20;2.10;;;19.70;45.40;;;;;;4983622;28;21236;-73
2023/12/24 12:52:28;;;;;;;1.60;1.50;;;19.80;45.40;;;;;;4988658;28;20621;-73